Little Orleans, Maryland
Current Conditions -  °F | °C
As of 8:11 AM on Wednesday 22 Oct 2014 (Local Time) from KCBE Reporting Station
Overcast Overcast  
Wind Chill: 54°   Ceiling: 3800
Heat Index: 54°   Visibility: 10mi
Dew Point: 46°   Wind: 7mph
Humidity: 77%   Direction: 340°NNW
Pressure: 30.06"   Gusts: NA
Location:  39.63°N, 78.39°W
Report Text: KCBE 221211Z AUTO 34006KT 10SM OVC038 12/08 A3006 RMK AO1
Loading
Personal Weather Stations






























Interactive Weather Map
Tropical Storm Tracking
New forecast layout! Learn more

10-Day Weather Forecast

Advertisements
Track Severe Weather on mobile